Terminal Aerodrome Forecast
Issued by NWS Paducah, KY

Home | Current Version | Previous Version | Graphics & Text | Print | Product List | Glossary On
Versions: 1 2 3 4 5 6 7 8 9 10 11 12 13 14 15 16 17 18 19 20
670
FTUS43 KPAH 272002 AAB
TAFPAH
TAF AMD
KPAH 272002Z 2720/2818 19008KT P6SM VCTS SCT025CB BKN035
      TEMPO 2720/2722 VRB15G25KT 3SM -TSRA BKN025CB
     FM280100 19007KT 4SM -TSRA BKN025CB
     FM280700 19005KT P6SM SCT020 BKN040=

USA.gov is the U.S. government's official web portal to all federal, state and local government web resources and services.